sensor_id;sensor_type;location;lat;lon;timestamp;P1;durP1;ratioP1;P2;durP2;ratioP2
38220;SDS011;24023;51.280;7.148;2022-09-29T03:55:06;5.4;;;4.9;;
38220;SDS011;24023;51.280;7.148;2022-09-29T04:00:12;5.4;;;4.9;;
38220;SDS011;24023;51.280;7.148;2022-09-29T04:05:07;5.8;;;5.2;;
38220;SDS011;24023;51.280;7.148;2022-09-29T04:10:08;5.8;;;5.2;;
38220;SDS011;24023;51.280;7.148;2022-09-29T04:15:07;6.1;;;5.6;;
38220;SDS011;24023;51.280;7.148;2022-09-29T04:20:07;6.1;;;5.6;;
38220;SDS011;24023;51.280;7.148;2022-09-29T04:25:07;5.6;;;5.1;;
38220;SDS011;24023;51.280;7.148;2022-09-29T04:30:09;5.6;;;5.1;;
38220;SDS011;24023;51.280;7.148;2022-09-29T04:35:06;5.6;;;5.1;;
38220;SDS011;24023;51.280;7.148;2022-09-29T04:40:08;5.8;;;5.3;;
38220;SDS011;24023;51.280;7.148;2022-09-29T04:45:10;5.8;;;5.3;;
38220;SDS011;24023;51.280;7.148;2022-09-29T04:50:08;5.2;;;4.7;;
38220;SDS011;24023;51.280;7.148;2022-09-29T04:55:10;5.2;;;4.7;;
38220;SDS011;24023;51.280;7.148;2022-09-29T05:00:11;5.2;;;4.7;;
38220;SDS011;24023;51.280;7.148;2022-09-29T05:05:06;6.6;;;5.2;;
38220;SDS011;24023;51.280;7.148;2022-09-29T05:10:07;6.6;;;5.2;;
38220;SDS011;24023;51.280;7.148;2022-09-29T05:15:08;5.4;;;4.9;;
38220;SDS011;24023;51.280;7.148;2022-09-29T05:20:08;5.4;;;4.9;;
38220;SDS011;24023;51.280;7.148;2022-09-29T05:25:08;5.4;;;4.9;;
38220;SDS011;24023;51.280;7.148;2022-09-29T05:30:09;5.6;;;4.8;;
38220;SDS011;24023;51.280;7.148;2022-09-29T05:35:07;5.6;;;4.8;;
38220;SDS011;24023;51.280;7.148;2022-09-29T05:40:07;5.2;;;4.7;;
38220;SDS011;24023;51.280;7.148;2022-09-29T05:45:10;5.2;;;4.7;;
38220;SDS011;24023;51.280;7.148;2022-09-29T05:50:08;5.2;;;4.7;;
38220;SDS011;24023;51.280;7.148;2022-09-29T05:55:08;4.7;;;4.2;;
38220;SDS011;24023;51.280;7.148;2022-09-29T06:00:11;4.7;;;4.2;;
38220;SDS011;24023;51.280;7.148;2022-09-29T06:05:06;5.0;;;4.6;;
38220;SDS011;24023;51.280;7.148;2022-09-29T06:10:08;5.0;;;4.6;;
38220;SDS011;24023;51.280;7.148;2022-09-29T06:15:08;4.8;;;4.4;;
38220;SDS011;24023;51.280;7.148;2022-09-29T06:20:08;4.8;;;4.4;;
38220;SDS011;24023;51.280;7.148;2022-09-29T06:25:06;4.8;;;4.4;;
38220;SDS011;24023;51.280;7.148;2022-09-29T06:30:10;4.7;;;4.1;;
38220;SDS011;24023;51.280;7.148;2022-09-29T06:40:09;4.9;;;4.5;;
38220;SDS011;24023;51.280;7.148;2022-09-29T06:45:10;4.9;;;4.5;;
38220;SDS011;24023;51.280;7.148;2022-09-29T06:50:09;4.9;;;4.5;;
38220;SDS011;24023;51.280;7.148;2022-09-29T06:55:06;5.5;;;4.7;;
38220;SDS011;24023;51.280;7.148;2022-09-29T07:00:10;5.5;;;4.7;;
38220;SDS011;24023;51.280;7.148;2022-09-29T07:05:06;5.9;;;4.8;;
38220;SDS011;24023;51.280;7.148;2022-09-29T07:10:08;5.9;;;4.8;;
38220;SDS011;24023;51.280;7.148;2022-09-29T07:15:08;5.9;;;4.8;;
38220;SDS011;24023;51.280;7.148;2022-09-29T07:20:08;5.1;;;4.6;;
38220;SDS011;24023;51.280;7.148;2022-09-29T07:25:06;5.1;;;4.6;;
38220;SDS011;24023;51.280;7.148;2022-09-29T07:30:09;11.3;;;4.9;;
38220;SDS011;24023;51.280;7.148;2022-09-29T07:35:06;11.3;;;4.9;;
38220;SDS011;24023;51.280;7.148;2022-09-29T07:40:08;6.0;;;5.4;;
38220;SDS011;24023;51.280;7.148;2022-09-29T07:45:08;6.0;;;5.4;;
38220;SDS011;24023;51.280;7.148;2022-09-29T07:50:08;6.0;;;5.4;;
38220;SDS011;24023;51.280;7.148;2022-09-29T07:55:07;6.0;;;5.4;;
38220;SDS011;24023;51.280;7.148;2022-09-29T08:00:11;6.0;;;5.4;;
38220;SDS011;24023;51.280;7.148;2022-09-29T08:05:06;5.5;;;5.0;;
38220;SDS011;24023;51.280;7.148;2022-09-29T08:10:08;5.5;;;5.0;;
38220;SDS011;24023;51.280;7.148;2022-09-29T08:15:08;5.5;;;5.0;;
38220;SDS011;24023;51.280;7.148;2022-09-29T08:20:08;5.9;;;5.4;;
38220;SDS011;24023;51.280;7.148;2022-09-29T08:25:06;5.9;;;5.4;;
38220;SDS011;24023;51.280;7.148;2022-09-29T08:30:10;6.2;;;5.6;;
38220;SDS011;24023;51.280;7.148;2022-09-29T08:35:07;6.2;;;5.6;;
38220;SDS011;24023;51.280;7.148;2022-09-29T08:40:08;6.4;;;5.8;;
38220;SDS011;24023;51.280;7.148;2022-09-29T08:45:11;6.4;;;5.8;;
38220;SDS011;24023;51.280;7.148;2022-09-29T08:50:10;6.4;;;5.8;;
38220;SDS011;24023;51.280;7.148;2022-09-29T08:55:11;7.3;;;6.2;;
38220;SDS011;24023;51.280;7.148;2022-09-29T09:00:12;9.1;;;6.8;;
38220;SDS011;24023;51.280;7.148;2022-09-29T09:05:11;9.1;;;6.8;;
38220;SDS011;24023;51.280;7.148;2022-09-29T09:10:12;6.9;;;6.2;;
38220;SDS011;24023;51.280;7.148;2022-09-29T09:15:13;6.9;;;6.2;;
38220;SDS011;24023;51.280;7.148;2022-09-29T09:20:12;6.9;;;6.2;;
38220;SDS011;24023;51.280;7.148;2022-09-29T09:25:10;7.1;;;6.4;;
38220;SDS011;24023;51.280;7.148;2022-09-29T09:30:12;7.1;;;6.4;;
38220;SDS011;24023;51.280;7.148;2022-09-29T09:35:14;7.0;;;6.3;;
38220;SDS011;24023;51.280;7.148;2022-09-29T09:40:12;5.6;;;4.3;;
38220;SDS011;24023;51.280;7.148;2022-09-29T09:45:11;5.6;;;4.3;;
38220;SDS011;24023;51.280;7.148;2022-09-29T09:50:11;5.6;;;4.3;;
38220;SDS011;24023;51.280;7.148;2022-09-29T09:55:09;5.2;;;4.1;;
38220;SDS011;24023;51.280;7.148;2022-09-29T10:00:12;3.7;;;2.0;;
38220;SDS011;24023;51.280;7.148;2022-09-29T10:05:08;3.7;;;2.0;;
38220;SDS011;24023;51.280;7.148;2022-09-29T10:10:13;3.7;;;2.0;;
38220;SDS011;24023;51.280;7.148;2022-09-29T10:15:12;3.6;;;2.5;;
38220;SDS011;24023;51.280;7.148;2022-09-29T10:20:08;3.6;;;2.5;;
38220;SDS011;24023;51.280;7.148;2022-09-29T10:25:14;3.6;;;2.5;;
38220;SDS011;24023;51.280;7.148;2022-09-29T10:30:15;2.7;;;2.0;;
38220;SDS011;24023;51.280;7.148;2022-09-29T10:35:13;3.1;;;2.0;;
38220;SDS011;24023;51.280;7.148;2022-09-29T10:40:12;3.1;;;2.0;;
38220;SDS011;24023;51.280;7.148;2022-09-29T10:45:11;3.4;;;2.2;;
38220;SDS011;24023;51.280;7.148;2022-09-29T10:50:11;3.4;;;2.2;;
38220;SDS011;24023;51.280;7.148;2022-09-29T10:55:13;2.5;;;2.3;;
38220;SDS011;24023;51.280;7.148;2022-09-29T11:00:22;2.5;;;2.3;;
38220;SDS011;24023;51.280;7.148;2022-09-29T11:05:14;3.7;;;2.1;;
38220;SDS011;24023;51.280;7.148;2022-09-29T11:10:11;3.7;;;2.1;;
38220;SDS011;24023;51.280;7.148;2022-09-29T11:15:21;3.7;;;2.1;;
38220;SDS011;24023;51.280;7.148;2022-09-29T11:20:09;2.3;;;1.1;;
38220;SDS011;24023;51.280;7.148;2022-09-29T11:25:13;2.5;;;1.1;;
38220;SDS011;24023;51.280;7.148;2022-09-29T11:30:09;2.5;;;1.1;;
38220;SDS011;24023;51.280;7.148;2022-09-29T11:35:12;2.2;;;1.1;;
38220;SDS011;24023;51.280;7.148;2022-09-29T11:40:10;2.2;;;1.1;;
38220;SDS011;24023;51.280;7.148;2022-09-29T11:45:14;2.8;;;1.9;;
38220;SDS011;24023;51.280;7.148;2022-09-29T11:50:12;2.8;;;1.9;;
38220;SDS011;24023;51.280;7.148;2022-09-29T11:55:13;2.8;;;1.9;;
38220;SDS011;24023;51.280;7.148;2022-09-29T12:00:11;2.6;;;1.6;;
38220;SDS011;24023;51.280;7.148;2022-09-29T12:05:09;2.6;;;1.6;;
38220;SDS011;24023;51.280;7.148;2022-09-29T12:10:19;2.6;;;1.3;;
38220;SDS011;24023;51.280;7.148;2022-09-29T12:15:13;2.6;;;1.3;;
38220;SDS011;24023;51.280;7.148;2022-09-29T12:20:13;2.6;;;1.3;;
38220;SDS011;24023;51.280;7.148;2022-09-29T12:25:09;2.6;;;1.3;;
38220;SDS011;24023;51.280;7.148;2022-09-29T12:30:13;2.0;;;1.1;;
38220;SDS011;24023;51.280;7.148;2022-09-29T12:35:09;2.0;;;1.1;;
38220;SDS011;24023;51.280;7.148;2022-09-29T12:40:09;2.7;;;1.1;;
38220;SDS011;24023;51.280;7.148;2022-09-29T12:45:11;2.7;;;1.1;;
38220;SDS011;24023;51.280;7.148;2022-09-29T12:50:09;2.0;;;1.0;;
38220;SDS011;24023;51.280;7.148;2022-09-29T12:55:06;2.0;;;1.0;;
38220;SDS011;24023;51.280;7.148;2022-09-29T13:00:11;1.5;;;0.9;;
38220;SDS011;24023;51.280;7.148;2022-09-29T13:05:11;1.5;;;0.9;;
38220;SDS011;24023;51.280;7.148;2022-09-29T13:10:13;2.1;;;0.7;;
38220;SDS011;24023;51.280;7.148;2022-09-29T13:16:08;2.1;;;0.7;;
38220;SDS011;24023;51.280;7.148;2022-09-29T13:21:15;2.1;;;1.0;;
38220;SDS011;24023;51.280;7.148;2022-09-29T13:25:10;2.1;;;1.0;;
38220;SDS011;24023;51.280;7.148;2022-09-29T13:30:11;2.1;;;1.0;;
38220;SDS011;24023;51.280;7.148;2022-09-29T13:35:10;2.1;;;0.9;;
38220;SDS011;24023;51.280;7.148;2022-09-29T13:40:14;2.0;;;0.9;;
38220;SDS011;24023;51.280;7.148;2022-09-29T13:45:13;2.0;;;0.9;;
38220;SDS011;24023;51.280;7.148;2022-09-29T13:50:42;2.1;;;1.1;;
38220;SDS011;24023;51.280;7.148;2022-09-29T13:55:47;2.1;;;1.1;;
38220;SDS011;24023;51.280;7.148;2022-09-29T14:05:32;2.1;;;0.7;;
38220;SDS011;24023;51.280;7.148;2022-09-29T14:10:17;1.6;;;0.7;;
38220;SDS011;24023;51.280;7.148;2022-09-29T14:15:07;1.6;;;0.7;;
38220;SDS011;24023;51.280;7.148;2022-09-29T14:20:11;1.9;;;0.8;;
38220;SDS011;24023;51.280;7.148;2022-09-29T14:30:12;1.9;;;0.8;;
38220;SDS011;24023;51.280;7.148;2022-09-29T14:35:12;1.8;;;1.1;;
38220;SDS011;24023;51.280;7.148;2022-09-29T14:40:38;1.8;;;1.1;;
38220;SDS011;24023;51.280;7.148;2022-09-29T14:55:09;2.6;;;1.4;;
38220;SDS011;24023;51.280;7.148;2022-09-29T15:00:11;3.2;;;1.6;;
38220;SDS011;24023;51.280;7.148;2022-09-29T15:05:10;3.2;;;1.6;;
38220;SDS011;24023;51.280;7.148;2022-09-29T15:10:19;3.1;;;1.8;;
38220;SDS011;24023;51.280;7.148;2022-09-29T15:15:26;3.1;;;1.8;;
38220;SDS011;24023;51.280;7.148;2022-09-29T15:20:11;3.1;;;1.8;;
38220;SDS011;24023;51.280;7.148;2022-09-29T15:25:15;2.2;;;1.1;;
38220;SDS011;24023;51.280;7.148;2022-09-29T15:30:12;2.2;;;1.1;;
38220;SDS011;24023;51.280;7.148;2022-09-29T15:35:06;2.2;;;1.1;;
38220;SDS011;24023;51.280;7.148;2022-09-29T15:40:08;2.6;;;0.9;;
38220;SDS011;24023;51.280;7.148;2022-09-29T15:45:14;2.6;;;0.9;;
38220;SDS011;24023;51.280;7.148;2022-09-29T15:50:16;2.1;;;1.1;;
38220;SDS011;24023;51.280;7.148;2022-09-29T15:55:10;2.1;;;1.1;;
38220;SDS011;24023;51.280;7.148;2022-09-29T16:00:41;2.1;;;1.1;;
38220;SDS011;24023;51.280;7.148;2022-09-29T16:05:08;2.2;;;0.9;;
38220;SDS011;24023;51.280;7.148;2022-09-29T16:10:12;2.2;;;0.9;;
38220;SDS011;24023;51.280;7.148;2022-09-29T16:15:09;2.2;;;0.9;;
38220;SDS011;24023;51.280;7.148;2022-09-29T16:20:10;3.6;;;1.1;;
38220;SDS011;24023;51.280;7.148;2022-09-29T16:25:08;3.6;;;1.1;;
38220;SDS011;24023;51.280;7.148;2022-09-29T16:30:16;3.6;;;1.1;;
38220;SDS011;24023;51.280;7.148;2022-09-29T16:35:35;3.6;;;1.1;;
38220;SDS011;24023;51.280;7.148;2022-09-29T16:40:16;3.0;;;1.3;;
38220;SDS011;24023;51.280;7.148;2022-09-29T16:45:12;3.0;;;1.3;;
38220;SDS011;24023;51.280;7.148;2022-09-29T16:50:09;3.0;;;1.3;;
38220;SDS011;24023;51.280;7.148;2022-09-29T16:55:10;1.9;;;1.2;;
38220;SDS011;24023;51.280;7.148;2022-09-29T17:00:11;1.9;;;1.2;;
38220;SDS011;24023;51.280;7.148;2022-09-29T17:05:07;2.2;;;0.9;;
38220;SDS011;24023;51.280;7.148;2022-09-29T17:10:12;4.0;;;1.8;;
38220;SDS011;24023;51.280;7.148;2022-09-29T17:15:10;4.0;;;1.8;;
38220;SDS011;24023;51.280;7.148;2022-09-29T17:20:09;2.4;;;1.3;;
38220;SDS011;24023;51.280;7.148;2022-09-29T17:25:06;2.4;;;1.3;;
38220;SDS011;24023;51.280;7.148;2022-09-29T17:30:11;2.4;;;1.3;;
38220;SDS011;24023;51.280;7.148;2022-09-29T17:35:07;2.3;;;1.1;;
38220;SDS011;24023;51.280;7.148;2022-09-29T17:40:11;2.3;;;1.1;;
38220;SDS011;24023;51.280;7.148;2022-09-29T17:45:09;3.2;;;1.4;;
38220;SDS011;24023;51.280;7.148;2022-09-29T17:50:12;3.2;;;1.4;;
38220;SDS011;24023;51.280;7.148;2022-09-29T17:55:10;3.2;;;1.4;;
38220;SDS011;24023;51.280;7.148;2022-09-29T18:00:13;2.9;;;1.2;;
38220;SDS011;24023;51.280;7.148;2022-09-29T18:05:06;2.9;;;1.2;;
38220;SDS011;24023;51.280;7.148;2022-09-29T18:10:12;2.6;;;1.2;;
38220;SDS011;24023;51.280;7.148;2022-09-29T18:15:08;2.6;;;1.2;;
38220;SDS011;24023;51.280;7.148;2022-09-29T18:20:12;4.0;;;1.8;;
38220;SDS011;24023;51.280;7.148;2022-09-29T18:25:07;4.0;;;1.8;;
38220;SDS011;24023;51.280;7.148;2022-09-29T18:30:13;4.0;;;1.8;;
38220;SDS011;24023;51.280;7.148;2022-09-29T18:35:09;2.7;;;1.7;;
38220;SDS011;24023;51.280;7.148;2022-09-29T18:40:08;2.7;;;1.7;;
38220;SDS011;24023;51.280;7.148;2022-09-29T18:45:13;4.1;;;1.9;;
38220;SDS011;24023;51.280;7.148;2022-09-29T18:50:11;4.1;;;1.9;;
38220;SDS011;24023;51.280;7.148;2022-09-29T18:55:06;4.1;;;1.9;;
38220;SDS011;24023;51.280;7.148;2022-09-29T19:00:14;5.6;;;3.4;;
38220;SDS011;24023;51.280;7.148;2022-09-29T19:05:08;5.6;;;3.4;;
38220;SDS011;24023;51.280;7.148;2022-09-29T19:10:08;5.6;;;3.4;;
38220;SDS011;24023;51.280;7.148;2022-09-29T19:15:07;4.3;;;2.7;;
38220;SDS011;24023;51.280;7.148;2022-09-29T19:20:08;4.3;;;2.7;;
38220;SDS011;24023;51.280;7.148;2022-09-29T19:25:06;4.1;;;3.2;;
38220;SDS011;24023;51.280;7.148;2022-09-29T19:30:09;4.1;;;3.2;;
38220;SDS011;24023;51.280;7.148;2022-09-29T19:35:07;5.0;;;2.8;;
38220;SDS011;24023;51.280;7.148;2022-09-29T19:40:09;5.0;;;2.8;;
38220;SDS011;24023;51.280;7.148;2022-09-29T19:45:09;5.0;;;2.8;;
38220;SDS011;24023;51.280;7.148;2022-09-29T19:55:10;4.9;;;3.2;;
38220;SDS011;24023;51.280;7.148;2022-09-29T20:00:12;4.6;;;3.6;;
38220;SDS011;24023;51.280;7.148;2022-09-29T20:05:06;4.6;;;3.6;;
38220;SDS011;24023;51.280;7.148;2022-09-29T20:10:08;4.6;;;3.6;;
38220;SDS011;24023;51.280;7.148;2022-09-29T20:15:08;6.0;;;3.6;;
38220;SDS011;24023;51.280;7.148;2022-09-29T20:20:08;3.4;;;3.1;;
38220;SDS011;24023;51.280;7.148;2022-09-29T20:25:07;3.4;;;3.1;;
38220;SDS011;24023;51.280;7.148;2022-09-29T20:30:09;7.1;;;3.3;;
38220;SDS011;24023;51.280;7.148;2022-09-29T20:35:06;7.1;;;3.3;;
38220;SDS011;24023;51.280;7.148;2022-09-29T20:40:08;5.3;;;3.9;;
38220;SDS011;24023;51.280;7.148;2022-09-29T20:45:10;5.3;;;3.9;;
38220;SDS011;24023;51.280;7.148;2022-09-29T20:50:09;5.3;;;3.9;;
38220;SDS011;24023;51.280;7.148;2022-09-29T20:55:06;4.5;;;3.0;;
38220;SDS011;24023;51.280;7.148;2022-09-29T21:00:12;4.5;;;3.0;;
38220;SDS011;24023;51.280;7.148;2022-09-29T21:05:06;4.5;;;2.8;;
38220;SDS011;24023;51.280;7.148;2022-09-29T21:10:09;4.5;;;2.8;;
38220;SDS011;24023;51.280;7.148;2022-09-29T21:15:09;3.6;;;2.7;;
38220;SDS011;24023;51.280;7.148;2022-09-29T21:20:08;3.6;;;2.7;;
38220;SDS011;24023;51.280;7.148;2022-09-29T21:25:07;3.6;;;2.7;;
38220;SDS011;24023;51.280;7.148;2022-09-29T21:30:09;3.7;;;2.6;;
38220;SDS011;24023;51.280;7.148;2022-09-29T21:35:06;3.7;;;2.6;;
38220;SDS011;24023;51.280;7.148;2022-09-29T21:40:08;6.4;;;3.7;;
38220;SDS011;24023;51.280;7.148;2022-09-29T21:45:11;6.4;;;3.7;;
38220;SDS011;24023;51.280;7.148;2022-09-29T21:50:08;4.0;;;3.4;;
38220;SDS011;24023;51.280;7.148;2022-09-29T21:55:06;4.0;;;3.4;;
38220;SDS011;24023;51.280;7.148;2022-09-29T22:00:21;4.0;;;3.4;;
38220;SDS011;24023;51.280;7.148;2022-09-29T22:05:08;4.0;;;3.0;;
38220;SDS011;24023;51.280;7.148;2022-09-29T22:10:08;4.0;;;3.0;;
38220;SDS011;24023;51.280;7.148;2022-09-29T22:15:07;4.8;;;2.8;;
38220;SDS011;24023;51.280;7.148;2022-09-29T22:20:08;4.8;;;2.8;;
38220;SDS011;24023;51.280;7.148;2022-09-29T22:25:06;3.9;;;2.9;;
38220;SDS011;24023;51.280;7.148;2022-09-29T22:30:10;3.9;;;2.9;;
38220;SDS011;24023;51.280;7.148;2022-09-29T22:35:06;3.9;;;2.9;;
38220;SDS011;24023;51.280;7.148;2022-09-29T22:40:08;2.8;;;2.3;;
38220;SDS011;24023;51.280;7.148;2022-09-29T22:45:12;2.8;;;2.3;;
38220;SDS011;24023;51.280;7.148;2022-09-29T22:50:08;3.4;;;2.5;;
38220;SDS011;24023;51.280;7.148;2022-09-29T22:55:07;3.4;;;2.5;;
38220;SDS011;24023;51.280;7.148;2022-09-29T23:00:11;3.4;;;2.5;;
38220;SDS011;24023;51.280;7.148;2022-09-29T23:05:06;3.6;;;2.7;;
38220;SDS011;24023;51.280;7.148;2022-09-29T23:10:10;3.6;;;2.7;;
38220;SDS011;24023;51.280;7.148;2022-09-29T23:15:08;3.0;;;2.5;;
38220;SDS011;24023;51.280;7.148;2022-09-29T23:20:08;3.0;;;2.5;;
38220;SDS011;24023;51.280;7.148;2022-09-29T23:25:06;3.0;;;2.5;;
38220;SDS011;24023;51.280;7.148;2022-09-29T23:30:09;3.8;;;2.9;;
38220;SDS011;24023;51.280;7.148;2022-09-29T23:35:06;3.8;;;2.9;;
38220;SDS011;24023;51.280;7.148;2022-09-29T23:40:07;4.7;;;2.6;;
38220;SDS011;24023;51.280;7.148;2022-09-29T23:45:09;4.7;;;2.6;;
38220;SDS011;24023;51.280;7.148;2022-09-29T23:50:08;2.5;;;2.3;;
38220;SDS011;24023;51.280;7.148;2022-09-29T23:55:06;2.5;;;2.3;;
